Louisville Standiford Field, Kentucky
Current Conditions -  °F | °C
As of 3:56 PM on Friday 24 Oct 2014 (Local Time) from KSDF Reporting Station
Broken Clouds Broken Clouds  
Wind Chill: 67°   Ceiling: 4000
Heat Index: 67°   Visibility: 10mi
Dew Point: 45°   Wind: 9mph
Humidity: 45%   Direction: 220°SW
Pressure: 30.05"   Gusts: NA
Location:  38.18°N, 85.73°W
Report Text: KSDF 241956Z 22008KT 10SM BKN040 19/07 A3005 RMK AO2 SLP174 T01940072
Loading
Personal Weather Stations






























Interactive Weather Map
Tropical Storm Tracking
New forecast layout! Learn more

10-Day Weather Forecast

Advertisements
Track Severe Weather on mobile